File list

From Geo Hashing
Jump to: navigation, search

This special page shows all uploaded files.

File list
Items per page:
Search for media name:
Username:

descDate Name Thumbnail Size User Description Versions
13:19, 17 April 20142014-04-12 32 -97 phone map.png (file)753 KBNeimsterCategory: Meetup on 2014-04-12 Category: Meetup in 32 -97 I did it.1
13:17, 17 April 20142014-04-12 32 -97 downtown.jpg (file)237 KBNeimsterCategory: Meetup on 2014-04-12 Category: Meetup in 32 -97 Looking to the south, downtown Fort Worth can just be seen through the haze.1
13:13, 17 April 20142014-04-12 32 -97 panorama.jpg (file)1.09 MBNeimsterCategory: Meetup on 2014-04-12 Category: Meetup in 32 -97 Panorama from the hashpoint with the southeast on the left and the west or northwest on the right.1
13:10, 17 April 20142014-04-12 32 -97 silos.jpg (file)222 KBNeimsterCategory: Meetup on 2014-04-12 Category: Meetup in 32 -97 Anyone who has ever visited northern Fort Worth would recognize this large grain storage facility. It is one of a few which rise out of the landscape in this area.1
13:07, 17 April 20142014-04-12 32 -97 face.jpg (file)105 KBNeimsterCategory: Meetup on 2014-04-12 Category: Meetup in 32 -971
12:57, 17 April 20142014-04-12 32 -97 fence.jpg (file)536 KBNeimsterCategory: Meetup on 2014-04-12 Category: Meetup in 32 -97 Category: Flora The hole in the fence which I utilized.1
11:04, 17 April 20142014 04 16 52 04-018 grin.JPG (file)268 KBPalmpjeJust Palmpje. Ninja's don't grin, they're deadly serious. Category: Meetup on 2014-04-17 Category: Meetup in 52 41
11:03, 17 April 20142014 04 16 52 04-017 ninja.JPG (file)392 KBPalmpjeHope you don't recognize this ninja hasher. Category: Meetup on 2014-04-17 Category: Meetup in 52 41
11:02, 17 April 20142014 04 16 52 04-016 cliff.JPG (file)434 KBPalmpjeYes, we had to climb this. Twice! Category: Meetup on 2014-04-17 Category: Meetup in 52 41
11:02, 17 April 20142014 04 16 52 04-014 fishing.JPG (file)283 KBPalmpjeFishermen are close to the coast. All the sand in view was below the tide 2 hours before. Category: Meetup on 2014-04-17 Category: Meetup in 52 41
11:01, 17 April 20142014 04 16 52 04-010 tower.JPG (file)313 KBPalmpjeYes, there was a tower. Shh, it's military! Category: Meetup on 2014-04-17 Category: Meetup in 52 41
11:00, 17 April 20142014 04 16 52 04-007 surf.JPG (file)422 KBPalmpjeAlways a nice view Category: Meetup on 2014-04-17 Category: Meetup in 52 41
11:00, 17 April 20142014 04 16 52 04-006 proof.JPG (file)272 KBPalmpjeYup, ZERO! And not in the water. Category: Meetup on 2014-04-17 Category: Meetup in 52 41
10:59, 17 April 20142014 04 16 52 04-003 golf.JPG (file)412 KBPalmpjeA golf course, they were hitting their balls away from the hashpoint! Category: Meetup on 2014-04-17 Category: Meetup in 52 41
10:58, 17 April 20142014 04 16 52 04-002 bike.JPG (file)540 KBPalmpjeCould this be a ninja hashcycle? Category: Meetup on 2014-04-17 Category: Meetup in 52 41
13:27, 16 April 20142014-04-16 51 9 GeorgDerReisende 8663.jpg (file)758 KBGeorgDerReisendeCategory: Meetup on 2014-04-16 Category: Meetup in 51 91
13:26, 16 April 20142014-04-16 51 9 GeorgDerReisende 8661.jpg (file)1.09 MBGeorgDerReisendeCategory: Meetup on 2014-04-16 Category: Meetup in 51 91
13:26, 16 April 20142014-04-16 51 9 GeorgDerReisende 8657.jpg (file)1.39 MBGeorgDerReisendeCategory: Meetup on 2014-04-16 Category: Meetup in 51 91
11:45, 16 April 20142014-04-16 49 8-3.jpg (file)260 KBDODOView from the gate to Speyer1
11:44, 16 April 20142014-04-16 49 8-2.jpg (file)362 KBDODOUnhappy hasher1
11:44, 16 April 20142014-04-16 49 8-1.jpg (file)500 KBDODONo trespassing1
15:43, 15 April 20142014-04-13 53 9 yakamoz 1397397119000.jpg (file)62 KBYakamozGeohash oafishness Category:Meetup on 2014-04-13 Category:Meetup in 53 91
15:42, 15 April 20142014-04-13 53 9 yakamoz 1397397102000.jpg (file)55 KBYakamozGeohash dance Category:Meetup on 2014-04-13 Category:Meetup in 53 91
15:41, 15 April 20142014-04-13 53 9 yakamoz 1397397213000.jpg (file)48 KBYakamozGeohash point Category:Meetup on 2014-04-13 Category:Meetup in 53 91
13:43, 15 April 20142014-04-15 49 8 deuded 1397581231862.jpg (file)57 KBDeudedMade it! Category:Meetup on 2014-04-15 Category:Meetup in 49 81
13:07, 15 April 20142014-04-15 49 8 RecentlyChanged 1397581580000.jpg (file)76 KBRecentlyChangedThey are currently testing the fence :) ;) [http://www.openstreetmap.org/?lat=49.01835680&lon=8.30319643&zoom=16&layers=B000FTF @49.0184,8.3032] Category:Meetup on 2014-04-15 Category:Meetup in 49 81
13:04, 15 April 20142014-04-15 49 8 RecentlyChanged 1397581282000.jpg (file)92 KBRecentlyChangedAnd RecentlyChanged [http://www.openstreetmap.org/?lat=49.01856065&lon=8.30323935&zoom=16&layers=B000FTF @49.0186,8.3032] Category:Meetup on 2014-04-15 Category:Meetup in 49 81
13:03, 15 April 20142014-04-15 49 8 RecentlyChanged 1397581328000.jpg (file)77 KBRecentlyChangedstupid grin from deuded showing us the hashpoint [http://www.openstreetmap.org/?lat=49.01834607&lon=8.30328226&zoom=16&layers=B000FTF @49.0183,8.3033] Category:Meetup on 2014-04-15 Category:Meetup in 49 81
12:49, 15 April 20142014-04-15 49 8 deuded 1397580493398.jpg (file)43 KBDeudedClose to the hash location, nice view of the rhein [http://www.openstreetmap.org/?lat=49.01681717&lon=8.30265423&zoom=16&layers=B000FTF @49.0168,8.3027] Category:Meetup on 2014-04-15 Category:Meetup in 49 81
12:47, 15 April 20142014-04-15 49 8 RecentlyChanged 1397580368000.jpg (file)42 KBRecentlyChangedBeautiful scenery ;) [http://www.openstreetmap.org/?lat=49.01675820&lon=8.30270290&zoom=16&layers=B000FTF @49.0168,8.3027] Category:Meetup on 2014-04-15 Category:Meetup in 49 81
10:34, 15 April 20142014-04-11 54 8 yakamoz 1397248208000.jpg (file)33 KBYakamozGeohash pasture Category:Meetup on 2014-04-11 Category:Meetup in 54 81
10:33, 15 April 20142014-04-11 54 8 yakamoz 1397248284000.jpg (file)35 KBYakamozAround the geohash point Category:Meetup on 2014-04-11 Category:Meetup in 54 81
10:18, 15 April 20142014-04-11 54 8 yakamoz 1397248680000.jpg (file)37 KBYakamozCategory:Meetup on 2014-04-11 Category:Meetup in 54 81
13:22, 14 April 20142014-04-14 51 9 GeorgDerReisende 8611.jpg (file)1.41 MBGeorgDerReisendeCategory: Meetup on 2014-04-14 Category: Meetup in 51 91
13:22, 14 April 20142014-04-14 51 9 GeorgDerReisende 8588.jpg (file)1.29 MBGeorgDerReisendeCategory: Meetup on 2014-04-14 Category: Meetup in 51 91
13:21, 14 April 20142014-04-14 51 9 GeorgDerReisende 8573.jpg (file)1.34 MBGeorgDerReisendeCategory: Meetup on 2014-04-14 Category: Meetup in 51 91
13:21, 14 April 20142014-04-14 51 9 GeorgDerReisende 8501.jpg (file)1,018 KBGeorgDerReisendeCategory: Meetup on 2014-04-14 Category: Meetup in 51 91
13:20, 14 April 20142014-04-14 51 9 GeorgDerReisende 8490.jpg (file)1.45 MBGeorgDerReisendeCategory: Meetup on 2014-04-14 Category: Meetup in 51 91
13:20, 14 April 20142014-04-14 51 9 GeorgDerReisende 8487.jpg (file)1.1 MBGeorgDerReisendeCategory: Meetup on 2014-04-14 Category: Meetup in 51 91
13:20, 14 April 20142014-04-14 51 9 GeorgDerReisende 8484.jpg (file)1.35 MBGeorgDerReisendeCategory: Meetup on 2014-04-14 Category: Meetup in 51 91
13:19, 14 April 20142014-04-14 51 9 GeorgDerReisende 8483.jpg (file)1.22 MBGeorgDerReisendeCategory: Meetup on 2014-04-14 Category: Meetup in 51 91
13:18, 14 April 20142014-04-14 51 9 GeorgDerReisende 8482.jpg (file)953 KBGeorgDerReisendeCategory: Meetup on 2014-04-14 Category: Meetup in 51 91
13:18, 14 April 20142014-04-14 51 9 GeorgDerReisende 8480.jpg (file)1.26 MBGeorgDerReisendeCategory: Meetup on 2014-04-14 Category: Meetup in 51 91
13:17, 14 April 20142014-04-14 51 9 GeorgDerReisende 8472.jpg (file)1.02 MBGeorgDerReisendeCategory: Meetup on 2014-04-14 Category: Meetup in 51 91
11:58, 14 April 2014140412 50 11 2.jpg (file)108 KBPaintedhellCategory: Meetup on 2014-04-12 Category: Meetup in 50 111
11:57, 14 April 2014140412 50 11 1.jpg (file)57 KBPaintedhellCategory: Meetup on 2014-04-12 Category: Meetup in 50 111
05:17, 14 April 20142014-04-14 43 27 12-17-30-623.jpg (file)32 KBKisolreProof [http://www.openstreetmap.org/?lat=43.36165745&lon=27.80725929&zoom=16&layers=B000FTF @43.3617,27.8073] Category:Meetup on 2014-04-14 Category:Meetup in 43 271
22:20, 13 April 20142014-04-12 25 -80 265 cow.jpg (file)223 KBMillion zillionHashcow? Category: Meetup on 2014-04-12 Category: Meetup in 25 -801
22:19, 13 April 20142014-04-12 25 -80 263 cows.jpg (file)198 KBMillion zillionCows in repose Category: Meetup on 2014-04-12 Category: Meetup in 25 -801
22:15, 13 April 20142014-04-12 25 -80 262 tree.jpg (file)149 KBMillion zillionA very lonely and probably dead tree Category: Meetup on 2014-04-12 Category: Meetup in 25 -801

First page
First page
Previous page
Previous page
Last page
Last page